Time;durP1;ratioP1;P1;durP2;ratioP2;P2;SDS_P1;SDS_P2;PMS_P1;PMS_P2;Temp;Humidity;BMP_temperature;BMP_pressure;BME280_temperature;BME280_humidity;BME280_pressure;Samples;Min_cycle;Max_cycle;Signal;HPM_P1;HPM_P2
2024/01/07 00:04:16;;;;;;;29.00;13.67;;;;;;;;;;10119531;29;20044;-80
2024/01/07 00:09:17;;;;;;;30.70;14.07;;;;;;;;;;10111937;29;20040;-79
2024/01/07 00:14:18;;;;;;;29.97;14.10;;;;;;;;;;10125901;29;20044;-80
2024/01/07 00:19:19;;;;;;;28.97;14.27;;;;;;;;;;10142695;29;20487;-79
2024/01/07 00:24:20;;;;;;;26.87;12.43;;;;;;;;;;10137625;29;20040;-80
2024/01/07 00:29:21;;;;;;;20.30;10.77;;;;;;;;;;10120011;29;20044;-80
2024/01/07 00:34:22;;;;;;;30.10;13.23;;;;;;;;;;10129651;29;20078;-79
2024/01/07 00:39:23;;;;;;;24.10;11.43;;;;;;;;;;10104882;29;20085;-79
2024/01/07 00:44:24;;;;;;;26.53;12.23;;;;;;;;;;10106949;29;20037;-79
2024/01/07 00:49:27;;;;;;;21.83;10.77;;;;;;;;;;10133267;29;20041;-80
2024/01/07 00:54:28;;;;;;;23.33;10.03;;;;;;;;;;10113877;29;20052;-80
2024/01/07 00:59:30;;;;;;;21.50;10.00;;;;;;;;;;10132560;29;20143;-80
2024/01/07 01:04:31;;;;;;;22.37;9.60;;;;;;;;;;10139662;29;20032;-79
2024/01/07 01:09:32;;;;;;;18.37;8.53;;;;;;;;;;10131124;29;20043;-80
2024/01/07 01:14:33;;;;;;;17.40;8.30;;;;;;;;;;10107627;29;20054;-80
2024/01/07 01:19:34;;;;;;;19.30;8.90;;;;;;;;;;10101671;29;20489;-80
2024/01/07 01:24:42;;;;;;;16.67;7.50;;;;;;;;;;10125429;29;20135;-79
2024/01/07 01:29:43;;;;;;;19.10;8.60;;;;;;;;;;10124429;29;20173;-80
2024/01/07 01:34:44;;;;;;;18.10;7.67;;;;;;;;;;10129171;29;20807;-81
2024/01/07 01:39:45;;;;;;;17.13;7.43;;;;;;;;;;10120022;29;20033;-79
2024/01/07 01:44:47;;;;;;;18.60;7.83;;;;;;;;;;10116509;29;20043;-80
2024/01/07 01:49:48;;;;;;;14.23;6.50;;;;;;;;;;10114704;29;20123;-80
2024/01/07 01:54:49;;;;;;;17.67;7.23;;;;;;;;;;10126898;29;20052;-80
2024/01/07 01:59:50;;;;;;;16.73;6.60;;;;;;;;;;10120630;29;20126;-80
2024/01/07 02:04:51;;;;;;;15.83;6.60;;;;;;;;;;10128477;29;20050;-81
2024/01/07 02:09:52;;;;;;;17.33;6.83;;;;;;;;;;10136838;29;20539;-81
2024/01/07 02:14:53;;;;;;;13.97;6.27;;;;;;;;;;10115831;29;20041;-80
2024/01/07 02:19:54;;;;;;;15.80;6.93;;;;;;;;;;10118760;29;20032;-80
2024/01/07 02:24:55;;;;;;;15.33;7.20;;;;;;;;;;10123454;29;20029;-79
2024/01/07 02:29:57;;;;;;;16.30;7.63;;;;;;;;;;10114749;29;20033;-81
2024/01/07 02:34:58;;;;;;;15.77;6.40;;;;;;;;;;10104176;29;20686;-79
2024/01/07 02:39:59;;;;;;;11.27;6.40;;;;;;;;;;10101548;29;20088;-79
2024/01/07 02:45:00;;;;;;;13.70;7.53;;;;;;;;;;10127335;29;20032;-79
2024/01/07 02:50:01;;;;;;;14.87;6.03;;;;;;;;;;10128615;29;20044;-81
2024/01/07 02:55:02;;;;;;;9.80;5.10;;;;;;;;;;10125641;29;20223;-78
2024/01/07 03:00:04;;;;;;;10.57;4.73;;;;;;;;;;10124115;29;20131;-80
2024/01/07 03:05:05;;;;;;;13.40;5.73;;;;;;;;;;10121998;29;20450;-81
2024/01/07 03:10:07;;;;;;;14.10;5.70;;;;;;;;;;10116626;29;20457;-80
2024/01/07 03:15:08;;;;;;;9.13;4.53;;;;;;;;;;10124125;29;20049;-80
2024/01/07 03:20:10;;;;;;;14.13;5.70;;;;;;;;;;10106152;29;20069;-80
2024/01/07 03:25:11;;;;;;;9.40;5.47;;;;;;;;;;10115594;29;20148;-81
2024/01/07 03:30:12;;;;;;;11.73;5.03;;;;;;;;;;10124972;29;20029;-81
2024/01/07 03:35:13;;;;;;;9.93;4.43;;;;;;;;;;10103516;29;20156;-80
2024/01/07 03:40:21;;;;;;;11.37;5.60;;;;;;;;;;10106583;29;20389;-80
2024/01/07 03:45:22;;;;;;;12.57;5.70;;;;;;;;;;10126035;29;20041;-80
2024/01/07 03:50:23;;;;;;;12.03;5.87;;;;;;;;;;10097439;29;20041;-80
2024/01/07 03:55:24;;;;;;;12.73;5.27;;;;;;;;;;10098550;29;20059;-80
2024/01/07 04:00:25;;;;;;;13.80;5.53;;;;;;;;;;10125192;29;20409;-78
2024/01/07 04:05:26;;;;;;;15.93;5.50;;;;;;;;;;10107456;29;20037;-79
2024/01/07 04:10:27;;;;;;;10.93;5.53;;;;;;;;;;10116422;29;20037;-80
2024/01/07 04:15:28;;;;;;;14.00;5.83;;;;;;;;;;10123527;29;20181;-80
2024/01/07 04:20:29;;;;;;;11.70;4.93;;;;;;;;;;10121350;29;20504;-79
2024/01/07 04:25:30;;;;;;;10.57;4.83;;;;;;;;;;10111895;29;20036;-81
2024/01/07 04:30:31;;;;;;;12.43;4.40;;;;;;;;;;10120721;29;20044;-81
2024/01/07 04:35:32;;;;;;;10.53;4.80;;;;;;;;;;10113795;29;20049;-81
2024/01/07 04:40:33;;;;;;;10.40;4.80;;;;;;;;;;10119666;29;20048;-80
2024/01/07 04:45:34;;;;;;;14.80;5.37;;;;;;;;;;10115124;29;20037;-79
2024/01/07 04:50:35;;;;;;;10.70;4.60;;;;;;;;;;10111638;29;20040;-80
2024/01/07 04:55:37;;;;;;;9.37;4.53;;;;;;;;;;10125145;29;20049;-80
2024/01/07 05:00:38;;;;;;;11.77;5.07;;;;;;;;;;10123103;29;20091;-80
2024/01/07 05:05:39;;;;;;;14.90;5.30;;;;;;;;;;10120445;29;20036;-80
2024/01/07 05:10:40;;;;;;;12.17;4.77;;;;;;;;;;10130719;29;20425;-78
2024/01/07 05:15:41;;;;;;;14.13;5.60;;;;;;;;;;10129364;29;20044;-81
2024/01/07 05:20:42;;;;;;;11.83;5.23;;;;;;;;;;10124886;29;20484;-80
2024/01/07 05:25:44;;;;;;;11.43;4.93;;;;;;;;;;10123122;29;20037;-79
2024/01/07 05:30:45;;;;;;;12.20;5.57;;;;;;;;;;10120268;29;20045;-82
2024/01/07 05:35:46;;;;;;;12.80;4.90;;;;;;;;;;10113846;29;20554;-82
2024/01/07 05:40:47;;;;;;;12.00;5.13;;;;;;;;;;10130607;29;20040;-80
2024/01/07 05:45:54;;;;;;;12.33;5.30;;;;;;;;;;10105721;29;20041;-80
2024/01/07 05:50:56;;;;;;;11.13;5.07;;;;;;;;;;10106586;29;20035;-79
2024/01/07 05:55:57;;;;;;;14.70;5.87;;;;;;;;;;10112301;29;20079;-80
2024/01/07 06:00:58;;;;;;;11.53;5.33;;;;;;;;;;10118893;29;20036;-80
2024/01/07 06:05:59;;;;;;;11.83;5.43;;;;;;;;;;10126375;29;20131;-80
2024/01/07 06:11:00;;;;;;;11.13;4.73;;;;;;;;;;10127402;29;20467;-79
2024/01/07 06:16:01;;;;;;;11.87;6.03;;;;;;;;;;10136498;29;20036;-80
2024/01/07 06:21:02;;;;;;;12.07;5.43;;;;;;;;;;10120995;29;20473;-79
2024/01/07 06:26:03;;;;;;;12.47;5.40;;;;;;;;;;10137033;29;20048;-80
2024/01/07 06:31:05;;;;;;;10.60;5.40;;;;;;;;;;10126516;29;20028;-80
2024/01/07 06:36:06;;;;;;;10.33;5.00;;;;;;;;;;10117558;29;20044;-81
2024/01/07 06:41:13;;;;;;;15.80;5.93;;;;;;;;;;10104341;29;20385;-82
2024/01/07 06:46:15;;;;;;;12.43;5.30;;;;;;;;;;10113496;29;20036;-80
2024/01/07 06:51:16;;;;;;;10.57;5.00;;;;;;;;;;10101944;29;20036;-80
2024/01/07 06:56:17;;;;;;;15.53;6.47;;;;;;;;;;10120904;29;20516;-80
2024/01/07 07:01:24;;;;;;;10.93;5.40;;;;;;;;;;10126950;29;20029;-79
2024/01/07 07:06:25;;;;;;;9.73;5.00;;;;;;;;;;10114684;29;20040;-82
2024/01/07 07:11:26;;;;;;;14.10;5.63;;;;;;;;;;10121652;29;20770;-81
2024/01/07 07:16:27;;;;;;;11.73;5.47;;;;;;;;;;10118228;29;20048;-80
2024/01/07 07:21:28;;;;;;;14.07;6.40;;;;;;;;;;10110118;29;20039;-80
2024/01/07 07:26:29;;;;;;;13.10;5.80;;;;;;;;;;10114461;29;20048;-81
2024/01/07 07:31:30;;;;;;;14.70;6.40;;;;;;;;;;10107374;29;20046;-80
2024/01/07 07:36:32;;;;;;;15.47;6.50;;;;;;;;;;10105979;29;20045;-80
2024/01/07 07:41:34;;;;;;;13.37;5.50;;;;;;;;;;10098922;29;20039;-79
2024/01/07 07:46:35;;;;;;;12.70;5.50;;;;;;;;;;10106396;29;20047;-80
2024/01/07 07:51:36;;;;;;;15.73;6.37;;;;;;;;;;10120944;29;20041;-81
2024/01/07 07:56:37;;;;;;;11.77;5.20;;;;;;;;;;10103562;29;20065;-82
2024/01/07 08:01:39;;;;;;;12.90;5.10;;;;;;;;;;10082357;29;20029;-82
2024/01/07 08:06:46;;;;;;;11.93;6.10;;;;;;;;;;10115639;29;20108;-80
2024/01/07 08:11:47;;;;;;;17.00;7.70;;;;;;;;;;10100025;29;20024;-81
2024/01/07 08:16:48;;;;;;;19.20;7.17;;;;;;;;;;10113218;29;20040;-81
2024/01/07 08:21:49;;;;;;;15.13;7.10;;;;;;;;;;10108410;29;20497;-81
2024/01/07 08:26:51;;;;;;;19.87;6.93;;;;;;;;;;10103926;29;20032;-82
2024/01/07 08:31:52;;;;;;;15.30;6.70;;;;;;;;;;10105952;29;20127;-81
2024/01/07 08:36:56;;;;;;;15.13;6.17;;;;;;;;;;10106654;29;20120;-82
2024/01/07 08:41:57;;;;;;;13.13;5.40;;;;;;;;;;10108283;29;20409;-82
2024/01/07 08:47:00;;;;;;;11.60;5.17;;;;;;;;;;10132059;29;20035;-81
2024/01/07 08:52:01;;;;;;;13.83;6.17;;;;;;;;;;10116977;29;20697;-82
2024/01/07 08:57:02;;;;;;;18.90;7.90;;;;;;;;;;10097542;29;20067;-80
2024/01/07 09:02:03;;;;;;;14.57;6.43;;;;;;;;;;10132080;29;20386;-80
2024/01/07 09:07:04;;;;;;;12.70;6.57;;;;;;;;;;10131682;29;20485;-80
2024/01/07 09:12:05;;;;;;;11.97;5.40;;;;;;;;;;10130415;29;20520;-80
2024/01/07 09:17:06;;;;;;;15.67;6.00;;;;;;;;;;10117689;29;20132;-81
2024/01/07 09:22:07;;;;;;;14.53;7.90;;;;;;;;;;10129686;29;20047;-83
2024/01/07 09:27:08;;;;;;;14.07;6.17;;;;;;;;;;10094187;29;20596;-82
2024/01/07 09:32:09;;;;;;;16.30;7.97;;;;;;;;;;10103659;29;20036;-80
2024/01/07 09:37:10;;;;;;;15.37;7.10;;;;;;;;;;10129940;29;20080;-81
2024/01/07 09:42:13;;;;;;;15.23;6.87;;;;;;;;;;10111644;29;20068;-80
2024/01/07 09:47:15;;;;;;;17.87;7.03;;;;;;;;;;10115012;29;20033;-82
2024/01/07 09:52:17;;;;;;;13.47;6.23;;;;;;;;;;10090646;29;20044;-80
2024/01/07 09:57:18;;;;;;;14.63;7.20;;;;;;;;;;10106418;29;20100;-80
2024/01/07 10:02:20;;;;;;;14.30;6.40;;;;;;;;;;10121210;29;20041;-82
2024/01/07 10:07:21;;;;;;;17.30;7.10;;;;;;;;;;10115072;29;20189;-80
2024/01/07 10:12:26;;;;;;;19.87;7.83;;;;;;;;;;10096597;29;20028;-82
2024/01/07 10:17:28;;;;;;;17.03;8.23;;;;;;;;;;10108120;29;20044;-81
2024/01/07 10:22:30;;;;;;;16.87;6.90;;;;;;;;;;10094428;29;20278;-80
2024/01/07 10:27:34;;;;;;;14.07;6.57;;;;;;;;;;10124473;29;20037;-80
2024/01/07 10:32:38;;;;;;;15.90;7.20;;;;;;;;;;10111239;29;20035;-80
2024/01/07 10:37:40;;;;;;;17.27;6.70;;;;;;;;;;10113541;29;20051;-81
2024/01/07 10:42:41;;;;;;;13.37;6.83;;;;;;;;;;10122116;29;20097;-80
2024/01/07 10:47:44;;;;;;;18.50;7.63;;;;;;;;;;10088581;29;20093;-80
2024/01/07 10:52:58;;;;;;;21.57;8.43;;;;;;;;;;10095887;29;20452;-80
2024/01/07 10:58:00;;;;;;;15.27;6.80;;;;;;;;;;10122979;29;20060;-82
2024/01/07 11:03:09;;;;;;;18.90;8.00;;;;;;;;;;10128166;29;20036;-80
2024/01/07 11:08:29;;;;;;;20.23;9.10;;;;;;;;;;10130986;29;20033;-81
2024/01/07 11:13:39;;;;;;;17.17;7.23;;;;;;;;;;10116854;29;20036;-80
2024/01/07 11:18:46;;;;;;;17.00;6.97;;;;;;;;;;10121123;29;20063;-80
2024/01/07 11:23:54;;;;;;;20.27;7.23;;;;;;;;;;10125676;29;20052;-80
2024/01/07 11:28:56;;;;;;;15.07;6.50;;;;;;;;;;10133681;29;20513;-79
2024/01/07 11:34:03;;;;;;;19.93;8.27;;;;;;;;;;10107911;29;20441;-79
2024/01/07 11:39:08;;;;;;;19.10;9.13;;;;;;;;;;10116799;29;20159;-80
2024/01/07 11:44:17;;;;;;;24.02;9.38;;;;;;;;;;10107374;29;20037;-79
2024/01/07 11:49:18;;;;;;;18.83;7.40;;;;;;;;;;10111516;29;20674;-80
2024/01/07 11:54:19;;;;;;;17.33;7.83;;;;;;;;;;10126443;29;20029;-80
2024/01/07 11:59:27;;;;;;;17.80;7.93;;;;;;;;;;10117130;29;20079;-82
2024/01/07 12:04:28;;;;;;;23.60;9.20;;;;;;;;;;10121593;29;20032;-78
2024/01/07 12:09:30;;;;;;;19.20;8.60;;;;;;;;;;10130688;29;20393;-79
2024/01/07 12:14:32;;;;;;;20.23;8.10;;;;;;;;;;10126344;29;20438;-79
2024/01/07 12:19:33;;;;;;;21.33;8.43;;;;;;;;;;10118266;29;20028;-80
2024/01/07 12:24:35;;;;;;;17.60;7.77;;;;;;;;;;10107985;29;20041;-78
2024/01/07 12:29:36;;;;;;;17.40;7.47;;;;;;;;;;10122315;29;20065;-79
2024/01/07 12:34:37;;;;;;;16.77;7.00;;;;;;;;;;10128288;29;20033;-80
2024/01/07 12:39:38;;;;;;;16.37;7.77;;;;;;;;;;10125841;29;20092;-81
2024/01/07 12:44:39;;;;;;;16.87;8.30;;;;;;;;;;10125343;29;20037;-79
2024/01/07 12:49:46;;;;;;;18.03;8.00;;;;;;;;;;10111179;29;20036;-78
2024/01/07 12:54:47;;;;;;;19.53;9.03;;;;;;;;;;10125181;29;20037;-78
2024/01/07 12:59:48;;;;;;;16.97;8.23;;;;;;;;;;10134380;29;20168;-78
2024/01/07 13:04:50;;;;;;;19.37;9.07;;;;;;;;;;10117371;29;20044;-78
2024/01/07 13:09:51;;;;;;;19.20;8.37;;;;;;;;;;10142223;29;20036;-79
2024/01/07 13:14:52;;;;;;;20.07;10.33;;;;;;;;;;10132308;29;20077;-78
2024/01/07 13:19:53;;;;;;;19.30;9.43;;;;;;;;;;10111905;29;20049;-79
2024/01/07 13:24:54;;;;;;;21.90;10.57;;;;;;;;;;10117121;29;20032;-81
2024/01/07 13:29:56;;;;;;;21.60;9.53;;;;;;;;;;10131049;29;20574;-80
2024/01/07 13:34:57;;;;;;;27.50;10.87;;;;;;;;;;10117757;29;20053;-77
2024/01/07 13:39:58;;;;;;;21.47;9.57;;;;;;;;;;10117135;29;20123;-78
2024/01/07 13:44:59;;;;;;;22.80;10.43;;;;;;;;;;10128299;29;20108;-80
2024/01/07 13:50:00;;;;;;;23.73;11.87;;;;;;;;;;10109946;29;20037;-78
2024/01/07 13:55:01;;;;;;;22.17;11.07;;;;;;;;;;10124564;29;20042;-78
2024/01/07 14:00:09;;;;;;;26.87;12.07;;;;;;;;;;10131553;29;20064;-79
2024/01/07 14:05:11;;;;;;;26.40;12.20;;;;;;;;;;10103057;29;20037;-80
2024/01/07 14:10:12;;;;;;;25.77;11.43;;;;;;;;;;10127725;29;20032;-79
2024/01/07 14:15:13;;;;;;;25.37;11.73;;;;;;;;;;10131562;29;20032;-79
2024/01/07 14:20:14;;;;;;;29.07;12.33;;;;;;;;;;10114985;29;20060;-77
2024/01/07 14:25:16;;;;;;;32.07;14.00;;;;;;;;;;10124616;29;20044;-78
2024/01/07 14:30:17;;;;;;;31.40;14.13;;;;;;;;;;10130042;29;20185;-79
2024/01/07 14:35:18;;;;;;;41.53;15.70;;;;;;;;;;10116651;29;20096;-78
2024/01/07 14:40:19;;;;;;;32.00;15.67;;;;;;;;;;10122672;29;20040;-77
2024/01/07 14:45:20;;;;;;;32.93;15.00;;;;;;;;;;10099917;29;20044;-78
2024/01/07 14:50:21;;;;;;;31.83;14.00;;;;;;;;;;10119165;29;20116;-78
2024/01/07 14:55:22;;;;;;;26.23;13.03;;;;;;;;;;10128188;29;20583;-78
2024/01/07 15:00:23;;;;;;;27.43;13.37;;;;;;;;;;10106785;29;20409;-79
2024/01/07 15:05:24;;;;;;;32.87;15.13;;;;;;;;;;10119992;29;20089;-78
2024/01/07 15:10:25;;;;;;;34.20;16.23;;;;;;;;;;10133027;29;20438;-78
2024/01/07 15:15:29;;;;;;;30.67;14.53;;;;;;;;;;10098452;29;20029;-78
2024/01/07 15:20:30;;;;;;;36.13;15.83;;;;;;;;;;10100529;29;20037;-80
2024/01/07 15:25:32;;;;;;;33.87;15.00;;;;;;;;;;10132658;29;20041;-79
2024/01/07 15:30:33;;;;;;;38.87;17.97;;;;;;;;;;10092614;29;20029;-78
2024/01/07 15:35:34;;;;;;;39.60;17.80;;;;;;;;;;10104604;29;20765;-78
2024/01/07 15:40:42;;;;;;;30.03;14.47;;;;;;;;;;10112535;29;20040;-78
2024/01/07 15:45:43;;;;;;;30.57;14.93;;;;;;;;;;10107322;29;20068;-78
2024/01/07 15:50:44;;;;;;;27.57;13.07;;;;;;;;;;10114109;29;20025;-78
2024/01/07 15:55:45;;;;;;;25.00;12.20;;;;;;;;;;10114171;29;20045;-78
2024/01/07 16:00:46;;;;;;;29.87;12.63;;;;;;;;;;10128249;29;20067;-81
2024/01/07 16:05:47;;;;;;;25.03;11.63;;;;;;;;;;10113700;29;20033;-79
2024/01/07 16:10:49;;;;;;;34.40;13.33;;;;;;;;;;10120988;29;20032;-79
2024/01/07 16:15:50;;;;;;;30.97;12.90;;;;;;;;;;10109339;29;20040;-78
2024/01/07 16:20:51;;;;;;;26.07;11.27;;;;;;;;;;10115051;29;20092;-78
2024/01/07 16:25:52;;;;;;;26.90;11.23;;;;;;;;;;10119902;29;20404;-78
2024/01/07 16:30:54;;;;;;;36.00;14.43;;;;;;;;;;10123122;29;20470;-78
2024/01/07 16:35:55;;;;;;;27.73;12.87;;;;;;;;;;10113633;29;20037;-78
2024/01/07 16:40:56;;;;;;;23.23;12.20;;;;;;;;;;10120355;29;20047;-78
2024/01/07 16:45:58;;;;;;;24.80;10.90;;;;;;;;;;10112165;29;20044;-78
2024/01/07 16:50:59;;;;;;;38.67;14.17;;;;;;;;;;10124729;29;20024;-78
2024/01/07 16:56:00;;;;;;;36.40;14.37;;;;;;;;;;10111473;29;20045;-78
2024/01/07 17:01:01;;;;;;;34.03;14.07;;;;;;;;;;10112360;29;20053;-78
2024/01/07 17:06:03;;;;;;;35.37;14.60;;;;;;;;;;10114333;29;20043;-80
2024/01/07 17:11:04;;;;;;;28.13;12.33;;;;;;;;;;10100625;29;20041;-78
2024/01/07 17:16:05;;;;;;;34.97;15.33;;;;;;;;;;10128134;29;20048;-78
2024/01/07 17:21:06;;;;;;;31.43;12.27;;;;;;;;;;10129363;29;20809;-79
2024/01/07 17:26:08;;;;;;;33.73;15.37;;;;;;;;;;10122534;29;20063;-79
2024/01/07 17:31:10;;;;;;;32.87;15.83;;;;;;;;;;10112280;29;20139;-79
2024/01/07 17:36:15;;;;;;;37.87;17.00;;;;;;;;;;10118589;29;20047;-78
2024/01/07 17:41:16;;;;;;;38.63;15.73;;;;;;;;;;10108571;29;20039;-79
2024/01/07 17:46:18;;;;;;;32.40;15.20;;;;;;;;;;10111252;29;20123;-78
2024/01/07 17:51:19;;;;;;;34.77;15.47;;;;;;;;;;10130464;29;20637;-78
2024/01/07 17:56:21;;;;;;;30.23;14.63;;;;;;;;;;10111566;29;20128;-81
2024/01/07 18:01:22;;;;;;;29.70;14.03;;;;;;;;;;10104874;29;20101;-79
2024/01/07 18:06:24;;;;;;;29.87;12.70;;;;;;;;;;10109293;29;20032;-79
2024/01/07 18:11:26;;;;;;;31.47;13.47;;;;;;;;;;10130812;29;20092;-82
2024/01/07 18:16:33;;;;;;;30.73;13.77;;;;;;;;;;10127944;29;20131;-79
2024/01/07 18:21:37;;;;;;;27.00;12.40;;;;;;;;;;10123761;29;20457;-79
2024/01/07 18:26:41;;;;;;;31.53;14.27;;;;;;;;;;10103530;29;20028;-81
2024/01/07 18:31:42;;;;;;;30.67;14.97;;;;;;;;;;10122542;29;20033;-79
2024/01/07 18:36:43;;;;;;;33.50;14.97;;;;;;;;;;10103566;29;20036;-81
2024/01/07 18:41:47;;;;;;;26.80;12.70;;;;;;;;;;10122714;29;20032;-80
2024/01/07 18:46:48;;;;;;;26.50;11.73;;;;;;;;;;10114901;29;20036;-82
2024/01/07 18:51:49;;;;;;;28.33;12.47;;;;;;;;;;10118702;29;20038;-81
2024/01/07 18:56:50;;;;;;;29.30;13.07;;;;;;;;;;10133255;29;20041;-80
2024/01/07 19:01:51;;;;;;;32.93;14.43;;;;;;;;;;10117896;29;20060;-78
2024/01/07 19:06:52;;;;;;;42.27;16.03;;;;;;;;;;10123487;29;20045;-80
2024/01/07 19:11:54;;;;;;;33.93;14.80;;;;;;;;;;10119922;29;20056;-80
2024/01/07 19:16:55;;;;;;;31.87;14.33;;;;;;;;;;10117056;29;20088;-80
2024/01/07 19:21:56;;;;;;;30.20;13.70;;;;;;;;;;10128202;29;20039;-79
2024/01/07 19:26:57;;;;;;;25.10;12.03;;;;;;;;;;10125714;29;20036;-81
2024/01/07 19:31:58;;;;;;;32.03;13.93;;;;;;;;;;10125829;29;20024;-79
2024/01/07 19:36:59;;;;;;;28.37;13.20;;;;;;;;;;10125563;29;20484;-81
2024/01/07 19:42:00;;;;;;;27.97;12.27;;;;;;;;;;10128271;29;20040;-81
2024/01/07 19:47:08;;;;;;;29.17;13.43;;;;;;;;;;10110796;23;20141;-79
2024/01/07 19:52:09;;;;;;;30.97;14.13;;;;;;;;;;10063188;29;20041;-80
2024/01/07 19:57:17;;;;;;;27.60;13.23;;;;;;;;;;10066082;29;20041;-83
2024/01/07 20:02:18;;;;;;;37.27;15.97;;;;;;;;;;10092308;29;20040;-79
2024/01/07 20:07:19;;;;;;;33.23;15.67;;;;;;;;;;10106954;29;20037;-79
2024/01/07 20:12:20;;;;;;;34.23;15.43;;;;;;;;;;10112140;29;20043;-79
2024/01/07 20:17:21;;;;;;;32.30;14.60;;;;;;;;;;10116523;29;20127;-79
2024/01/07 20:22:22;;;;;;;28.37;13.93;;;;;;;;;;10089591;29;20051;-81
2024/01/07 20:27:23;;;;;;;34.23;15.13;;;;;;;;;;10116420;29;20390;-79
2024/01/07 20:32:24;;;;;;;32.20;15.47;;;;;;;;;;10130887;29;20036;-79
2024/01/07 20:37:25;;;;;;;27.93;12.43;;;;;;;;;;10113499;29;20056;-79
2024/01/07 20:42:26;;;;;;;33.43;15.93;;;;;;;;;;10126246;29;20044;-83
2024/01/07 20:47:27;;;;;;;31.73;15.33;;;;;;;;;;10130443;29;20088;-79
2024/01/07 20:52:28;;;;;;;33.17;15.10;;;;;;;;;;10126376;29;20032;-82
2024/01/07 20:57:30;;;;;;;27.50;13.03;;;;;;;;;;10130484;29;20404;-79
2024/01/07 21:02:32;;;;;;;32.47;15.63;;;;;;;;;;10129754;29;20726;-79
2024/01/07 21:07:33;;;;;;;30.00;14.57;;;;;;;;;;10120501;29;20124;-79
2024/01/07 21:12:34;;;;;;;37.03;16.10;;;;;;;;;;10128165;29;20036;-80
2024/01/07 21:17:38;;;;;;;31.60;14.57;;;;;;;;;;10118607;29;20060;-79
2024/01/07 21:22:39;;;;;;;29.10;14.40;;;;;;;;;;10125280;29;20598;-79
2024/01/07 21:27:40;;;;;;;27.17;12.27;;;;;;;;;;10127882;29;20044;-83
2024/01/07 21:32:41;;;;;;;34.03;14.63;;;;;;;;;;10128051;29;20503;-80
2024/01/07 21:37:42;;;;;;;31.90;14.47;;;;;;;;;;10128389;29;21205;-79
2024/01/07 21:42:43;;;;;;;35.33;15.87;;;;;;;;;;10123320;29;20096;-79
2024/01/07 21:47:44;;;;;;;32.50;14.33;;;;;;;;;;10128506;29;20103;-82
2024/01/07 21:52:55;;;;;;;35.00;14.60;;;;;;;;;;10127552;29;20112;-80
2024/01/07 21:57:56;;;;;;;32.00;14.40;;;;;;;;;;10127988;29;20049;-81
2024/01/07 22:02:57;;;;;;;29.03;14.73;;;;;;;;;;10127122;29;20599;-78
2024/01/07 22:08:04;;;;;;;32.57;14.87;;;;;;;;;;10120187;29;20036;-82
2024/01/07 22:13:05;;;;;;;35.83;17.27;;;;;;;;;;10117172;29;20132;-80
2024/01/07 22:18:07;;;;;;;37.70;17.03;;;;;;;;;;10127761;29;20884;-81
2024/01/07 22:23:08;;;;;;;36.03;15.50;;;;;;;;;;10126574;29;20370;-79
2024/01/07 22:28:09;;;;;;;37.60;16.43;;;;;;;;;;10127910;29;20036;-80
2024/01/07 22:33:10;;;;;;;40.33;17.10;;;;;;;;;;10120901;29;20035;-82
2024/01/07 22:38:11;;;;;;;37.53;16.30;;;;;;;;;;10125335;29;20109;-82
2024/01/07 22:43:13;;;;;;;39.03;14.93;;;;;;;;;;10120659;29;20036;-79
2024/01/07 22:48:15;;;;;;;26.63;12.87;;;;;;;;;;10124064;29;20061;-79
2024/01/07 22:53:16;;;;;;;34.43;15.37;;;;;;;;;;10120025;29;20695;-81
2024/01/07 22:58:17;;;;;;;27.87;12.83;;;;;;;;;;10120671;29;20071;-79
2024/01/07 23:03:18;;;;;;;27.87;13.50;;;;;;;;;;10124423;29;20039;-81
2024/01/07 23:08:19;;;;;;;35.63;13.87;;;;;;;;;;10108663;29;20136;-80
2024/01/07 23:13:28;;;;;;;29.37;13.20;;;;;;;;;;10115311;29;20064;-80
2024/01/07 23:18:29;;;;;;;31.10;14.20;;;;;;;;;;10124809;29;20088;-82
2024/01/07 23:23:30;;;;;;;28.27;14.50;;;;;;;;;;10125557;29;20489;-79
2024/01/07 23:28:31;;;;;;;32.63;15.97;;;;;;;;;;10111470;29;20045;-80
2024/01/07 23:33:32;;;;;;;26.73;13.53;;;;;;;;;;10114453;29;20039;-79
2024/01/07 23:38:35;;;;;;;33.37;14.93;;;;;;;;;;10118674;29;20173;-82
2024/01/07 23:43:36;;;;;;;33.23;15.73;;;;;;;;;;10123903;29;20068;-78
2024/01/07 23:48:36;;;;;;;37.20;16.00;;;;;;;;;;10119218;29;20182;-79
2024/01/07 23:53:38;;;;;;;32.20;15.53;;;;;;;;;;10119040;29;20032;-81
2024/01/07 23:58:39;;;;;;;29.77;12.77;;;;;;;;;;10124889;29;20076;-80
